Latest Weather Observations for Condobolin Airport

IDN60801

Issued at 6:03 am EST Sunday 20 August 2017 (issued every 30 minutes, with the page automatically refreshed every 10 minutes)

About weather observations | Map of weather stations | Latest weather observations for NSW | Other Formats
Station Details ID: 050137 Name: CONDOBOLIN AIRPORT AWS Lat: -33.07 Lon: 147.21 Height: 192.6 m
Data from the previous 72 hours. | See also: Recent months at Condobolin Airport
Date/Time
EST
Temp
°C
App
Temp
°C
Dew
Point
°C
Rel
Hum
%
Delta-T
°C
Wind Press
QNH
hPa
Press
MSL
hPa
Rain since
9am
mm
Dir  Spd
km/h
Gust
km/h
Spd
kts
Gust
kts
20/06:00am -4.4 -7.0 -5.1 95 0.0 CALM 0 0 0 0 1025.0 1025.2 0.0
20/05:30am -3.7 -7.4 -4.2 96 0.0 NNE 6 9 3 5 1024.8 1025.1 0.0
20/05:00am -4.0 -7.0 -5.0 93 0.1 ENE 2 9 1 5 1024.7 1025.0 0.0
20/04:30am -2.9 -5.4 -3.9 93 0.2 CALM 0 0 0 0 1025.0 1025.2 0.0
20/04:00am -1.4 -5.4 -2.2 94 0.2 NW 9 11 5 6 1025.1 1025.3 0.0
20/03:30am -1.1 -5.1 -2.1 93 0.3 NW 9 13 5 7 1025.0 1025.2 0.0
20/03:00am -0.1 -3.9 -1.1 93 0.3 WNW 9 11 5 6 1025.2 1025.4 0.0
20/02:30am -0.1 -3.6 -1.4 91 0.5 WNW 7 11 4 6 1025.3 1025.5 0.0
20/02:00am 0.1 -3.8 -1.2 91 0.5 WNW 9 11 5 6 1025.6 1025.8 0.0
20/01:30am -0.2 -4.1 -1.8 89 0.5 W 9 11 5 6 1025.7 1025.9 0.0
20/01:00am 1.0 -2.8 -0.6 89 0.6 WNW 9 11 5 6 1025.4 1025.6 0.0
20/12:30am 0.6 -4.0 -1.2 88 0.7 NW 13 15 7 8 1025.3 1025.5 0.0
20/12:00am 0.5 -3.4 -1.4 87 0.7 W 9 13 5 7 1025.5 1025.7 0.0
 
Date/Time
EST
Temp
°C
App
Temp
°C
Dew
Point
°C
Rel
Hum
%
Delta-T
°C
Wind Press
QNH
hPa
Press
MSL
hPa
Rain since
9am
mm
Dir  Spd
km/h
Gust
km/h
Spd
kts
Gust
kts
19/11:30pm 0.7 -3.6 -1.5 85 0.8 WNW 11 13 6 7 1025.8 1026.0 0.0
19/11:00pm 1.3 -2.6 -1.4 82 1.0 W 9 11 5 6 1025.7 1025.9 0.0
19/10:30pm 2.7 -0.7 -0.7 78 1.3 W 7 11 4 6 1025.7 1025.9 0.0
19/10:00pm 2.6 -1.2 -0.8 78 1.2 W 9 11 5 6 1025.6 1025.8 0.0
19/09:30pm 2.3 -1.6 -1.5 76 1.4 SW 9 11 5 6 1025.5 1025.7 0.0
19/09:00pm 3.6 -0.2 -0.4 75 1.5 SSW 9 13 5 7 1025.4 1025.6 0.0
19/08:30pm 4.1 0.0 -0.5 72 1.7 SW 11 13 6 7 1025.3 1025.5 0.0
19/08:00pm 5.1 0.6 -0.1 69 2.0 SSW 13 17 7 9 1025.1 1025.3 0.0
19/07:30pm 4.7 -0.2 -0.3 70 1.9 SSW 15 17 8 9 1025.1 1025.3 0.0
19/07:00pm 5.8 1.6 -0.9 62 2.5 SSW 11 13 6 7 1024.8 1025.1 0.0
19/06:30pm 7.6 3.8 -0.6 56 3.2 SSW 9 13 5 7 1024.5 1024.8 0.0
19/06:00pm 9.5 4.2 -0.4 50 3.9 SSW 17 20 9 11 1024.3 1024.6 0.0
19/05:30pm 10.5 5.3 0.0 48 4.3 SSW 17 22 9 12 1023.8 1024.1 0.0
19/05:00pm 11.7 6.1 0.2 45 4.8 SSW 19 26 10 14 1023.4 1023.7 0.0
19/04:30pm 11.7 5.1 -0.1 44 4.9 SSW 24 35 13 19 1023.3 1023.6 0.0
19/04:00pm 12.6 5.3 0.0 42 5.2 SW 28 43 15 23 1023.1 1023.4 0.0
19/03:30pm 12.0 4.2 -0.8 41 5.2 SSW 30 37 16 20 1023.0 1023.2 0.0
19/03:00pm 13.1 5.5 0.8 43 5.2 SW 30 39 16 21 1022.9 1023.1 0.0
19/02:30pm 12.7 4.7 0.5 43 5.2 SW 32 46 17 25 1023.0 1023.2 0.0
19/02:00pm 14.0 7.1 2.6 46 5.1 SSW 28 41 15 22 1022.9 1023.1 0.0
19/01:30pm 12.3 5.2 1.3 47 4.7 SW 28 39 15 21 1023.1 1023.4 0.0
19/01:00pm 12.5 5.6 2.4 50 4.4 SW 28 37 15 20 1023.2 1023.5 0.0
19/12:30pm 11.4 6.0 2.4 54 3.9 SW 20 33 11 18 1023.9 1024.2 0.0
19/12:00pm 10.5 4.4 2.8 59 3.3 SW 24 33 13 18 1024.2 1024.5 0.0
19/11:30am 10.7 4.4 3.7 62 3.1 SSW 26 37 14 20 1024.4 1024.7 0.0
19/11:00am 9.1 3.2 3.9 70 2.3 SSW 24 35 13 19 1024.8 1025.1 0.0
19/10:30am 9.1 3.2 3.7 69 2.4 SW 24 33 13 18 1024.7 1025.0 0.0
19/10:00am 8.1 2.9 3.8 74 1.9 SW 20 30 11 16 1024.7 1025.0 0.0
19/09:30am 7.0 2.5 4.1 82 1.3 WSW 17 24 9 13 1024.6 1024.9 0.0
19/09:00am 6.0 0.4 3.7 85 1.0 SW 22 30 12 16 1024.3 1024.6 0.0
19/08:30am 5.2 0.2 3.7 90 0.6 WSW 19 24 10 13 1023.7 1024.0 0.0
19/08:00am 4.2 -0.1 3.3 94 0.4 W 15 19 8 10 1023.3 1023.6 0.0
19/07:30am 3.0 -1.0 2.6 97 0.2 W 13 17 7 9 1022.8 1023.0 0.0
19/07:00am 1.7 -2.6 1.3 97 0.2 WNW 13 15 7 8 1022.6 1022.8 0.0
19/06:30am 2.4 -1.7 2.0 97 0.2 W 13 15 7 8 1022.1 1022.3 0.0
19/06:00am 2.5 -1.7 1.9 96 0.2 W 13 15 7 8 1021.7 1021.9 0.0
19/05:30am 2.6 -0.8 1.9 95 0.3 W 9 13 5 7 1021.5 1021.7 0.0
19/05:00am 3.1 -0.6 2.2 94 0.4 W 11 15 6 8 1021.4 1021.6 0.0
19/04:30am 3.4 -0.3 2.2 92 0.5 W 11 15 6 8 1021.3 1021.5 0.0
19/04:00am 4.0 -0.1 2.5 90 0.6 W 13 17 7 9 1021.1 1021.3 0.0
19/03:30am 4.4 0.0 2.8 89 0.7 W 15 19 8 10 1020.9 1021.1 0.0
19/03:00am 4.8 0.0 2.8 87 0.8 WSW 17 24 9 13 1020.9 1021.1 0.0
19/02:30am 5.1 1.1 3.1 87 0.8 WSW 13 19 7 10 1021.1 1021.3 0.0
19/02:00am 5.5 0.9 3.5 87 0.8 W 17 22 9 12 1021.1 1021.3 0.0
19/01:30am 5.8 0.8 3.5 85 1.0 WSW 19 22 10 12 1021.1 1021.3 0.0
19/01:00am 6.1 1.1 3.4 83 1.1 WSW 19 30 10 16 1021.2 1021.4 0.0
19/12:30am 6.5 1.5 3.7 82 1.2 W 19 28 10 15 1020.9 1021.1 0.0
19/12:00am 6.7 1.5 3.7 81 1.3 W 20 26 11 14 1020.9 1021.1 0.0
 
Date/Time
EST
Temp
°C
App
Temp
°C
Dew
Point
°C
Rel
Hum
%
Delta-T
°C
Wind Press
QNH
hPa
Press
MSL
hPa
Rain since
9am
mm
Dir  Spd
km/h
Gust
km/h
Spd
kts
Gust
kts
18/11:30pm 6.4 1.4 3.4 81 1.3 W 19 24 10 13 1020.8 1021.0 0.0
18/11:00pm 7.1 2.5 3.7 79 1.5 W 17 22 9 12 1021.0 1021.2 0.0
18/10:30pm 7.8 2.2 3.5 74 1.9 WSW 22 30 12 16 1021.1 1021.3 0.0
18/10:00pm 8.3 2.6 2.8 68 2.3 WSW 22 30 12 16 1021.1 1021.3 0.0
18/09:30pm 8.5 2.4 2.5 66 2.5 WSW 24 32 13 17 1020.9 1021.1 0.0
18/09:00pm 9.1 2.9 2.2 62 2.9 WSW 24 35 13 19 1020.7 1020.9 0.0
18/08:30pm 9.7 3.5 2.1 59 3.2 WSW 24 39 13 21 1020.4 1020.6 0.0
18/08:00pm 9.9 2.8 1.5 56 3.5 WSW 28 39 15 21 1019.9 1020.1 0.0
18/07:30pm 9.6 4.2 1.5 57 3.4 WSW 19 26 10 14 1019.6 1019.8 0.0
18/07:00pm 10.0 4.4 1.1 54 3.7 WSW 20 30 11 16 1018.9 1019.2 0.0
18/06:30pm 10.8 5.2 1.4 52 4.0 WSW 20 26 11 14 1018.5 1018.7 0.0
18/06:00pm 11.5 4.3 0.9 48 4.5 W 28 39 15 21 1018.0 1018.2 0.0
18/05:30pm 12.2 4.6 0.6 45 4.9 WSW 30 50 16 27 1017.5 1017.7 0.0
18/05:22pm 12.6 4.6 0.7 44 5.0 WSW 32 50 17 27 1017.4 1017.6 0.0
18/05:00pm 12.8 4.9 1.2 45 5.0 WSW 32 48 17 26 1017.2 1017.4 0.0
18/04:56pm 12.9 5.4 1.3 45 5.0 WSW 30 48 16 26 1017.1 1017.3 0.0
18/04:30pm 12.7 4.2 0.8 44 5.1 W 35 50 19 27 1016.9 1017.1 0.0
18/04:15pm 12.4 4.4 1.7 48 4.6 WSW 33 52 18 28 1016.8 1017.0 0.0
18/04:00pm 12.2 2.7 1.5 48 4.6 WSW 41 54 22 29 1016.6 1016.8 0.0
18/03:40pm 14.4 4.2 -0.1 37 6.1 W 43 61 23 33 1016.2 1016.4 0.0
18/03:30pm 14.5 4.2 0.0 37 6.2 WSW 44 59 24 32 1016.2 1016.4 0.0
18/03:00pm 13.8 4.1 0.5 40 5.7 WSW 41 61 22 33 1016.1 1016.3 0.0
18/02:49pm 14.2 4.0 -0.6 36 6.2 WSW 43 65 23 35 1015.9 1016.1 0.0
18/02:30pm 14.7 5.1 1.3 40 5.9 WSW 41 56 22 30 1015.9 1016.1 0.0
18/02:07pm 14.4 4.4 1.0 40 5.8 WSW 43 61 23 33 1016.0 1016.2 0.0
18/02:00pm 14.3 4.4 1.6 42 5.6 WSW 43 54 23 29 1016.0 1016.2 0.0
18/01:30pm 12.7 3.5 1.4 46 4.9 WSW 39 61 21 33 1016.0 1016.2 0.0
18/01:03pm 15.1 7.1 3.9 47 5.2 WSW 35 54 19 29 1016.2 1016.4 0.0
18/01:00pm 13.3 4.7 2.8 49 4.7 WSW 37 54 20 29 1016.2 1016.4 0.0
18/12:30pm 14.0 4.3 2.9 47 5.0 W 43 67 23 36 1016.5 1016.7 0.0
18/12:20pm 13.7 5.2 3.2 49 4.7 WSW 37 56 20 30 1016.5 1016.7 0.0
18/12:00pm 12.7 4.1 2.6 50 4.5 W 37 50 20 27 1016.8 1017.0 0.0
18/11:38am 13.4 5.0 3.8 52 4.4 WSW 37 56 20 30 1017.0 1017.2 0.0
18/11:30am 12.7 4.4 4.4 57 3.8 WSW 37 50 20 27 1017.2 1017.4 0.0
18/11:00am 12.2 4.3 4.2 58 3.6 W 35 52 19 28 1017.3 1017.5 0.0
18/10:53am 12.2 3.8 3.9 57 3.8 WSW 37 56 20 30 1017.3 1017.5 0.0
18/10:30am 11.6 4.1 4.3 61 3.3 WSW 33 50 18 27 1017.3 1017.5 0.0
18/10:18am 11.3 2.7 4.7 64 3.0 WSW 39 57 21 31 1017.4 1017.6 0.0
18/10:00am 10.8 2.9 4.3 64 2.9 WSW 35 50 19 27 1017.3 1017.5 0.0
18/09:30am 10.5 3.3 5.1 69 2.5 W 32 50 17 27 1017.1 1017.3 0.0
18/09:26am 10.4 3.2 5.0 69 2.5 W 32 50 17 27 1017.0 1017.2 0.0
18/09:00am 9.8 2.0 5.0 72 2.2 W 35 44 19 24 1017.0 1017.2 0.0
18/08:30am 9.9 3.1 5.3 73 2.1 W 30 41 16 22 1016.6 1016.8 0.0
18/08:00am 9.3 3.3 5.5 77 1.7 W 26 35 14 19 1016.2 1016.4 0.0
18/07:30am 8.3 4.0 5.1 80 1.4 WNW 17 24 9 13 1015.8 1016.0 0.0
18/07:00am 7.9 2.5 4.7 80 1.4 W 22 32 12 17 1015.4 1015.6 0.0
18/06:30am 8.2 2.9 4.8 79 1.5 W 22 30 12 16 1014.9 1015.1 0.0
18/06:00am 8.4 3.5 5.0 79 1.5 W 20 30 11 16 1014.6 1014.8 0.0
18/05:30am 8.8 3.2 5.2 78 1.6 W 24 35 13 19 1014.3 1014.4 0.0
18/05:00am 8.9 3.7 5.3 78 1.6 W 22 32 12 17 1013.8 1014.0 0.0
18/04:30am 9.4 4.2 5.6 77 1.7 W 22 30 12 16 1013.4 1013.6 0.0
18/04:00am 9.6 4.9 6.1 79 1.6 W 20 30 11 16 1013.0 1013.2 0.0
18/03:30am 9.3 4.7 6.7 84 1.2 WNW 20 28 11 15 1013.2 1013.4 0.0
18/03:00am 9.8 5.8 6.5 80 1.6 W 17 24 9 13 1013.4 1013.6 0.0
18/02:30am 9.8 5.2 6.3 79 1.6 W 20 30 11 16 1013.2 1013.4 0.0
18/02:00am 10.5 4.9 5.5 71 2.3 SW 24 33 13 18 1013.6 1013.8 0.0
18/01:30am 10.6 4.7 3.9 63 3.0 SW 24 33 13 18 1013.1 1013.3 0.0
18/01:00am 10.7 6.7 3.0 59 3.4 W 13 17 7 9 1012.8 1013.0 0.0
18/12:30am 11.2 6.0 2.5 55 3.8 WSW 19 26 10 14 1012.1 1012.3 0.0
18/12:09am 12.5 6.6 1.8 48 4.6 W 22 43 12 23 1012.4 1012.6 0.0
18/12:00am 10.5 5.9 1.6 54 3.8 WNW 15 20 8 11 1011.9 1012.1 0.0
 
Date/Time
EST
Temp
°C
App
Temp
°C
Dew
Point
°C
Rel
Hum
%
Delta-T
°C
Wind Press
QNH
hPa
Press
MSL
hPa
Rain since
9am
mm
Dir  Spd
km/h
Gust
km/h
Spd
kts
Gust
kts
17/11:30pm 11.1 6.4 0.8 49 4.3 NW 15 19 8 10 1011.6 1011.8 0.0
17/11:00pm 10.4 5.3 0.7 51 4.0 NW 17 19 9 10 1011.7 1011.9 0.0
17/10:30pm 10.5 5.4 0.5 50 4.1 NW 17 19 9 10 1011.8 1012.0 0.0
17/10:00pm 10.1 5.4 1.2 54 3.7 NW 15 19 8 10 1011.8 1012.0 0.0
17/09:30pm 9.7 5.0 1.1 55 3.6 NW 15 17 8 9 1011.8 1012.0 0.0
17/09:00pm 10.3 5.6 0.9 52 3.9 NW 15 15 8 8 1011.8 1012.0 0.0
17/08:30pm 10.9 6.8 0.0 47 4.5 WNW 11 15 6 8 1011.9 1012.1 0.0
17/08:00pm 11.2 6.3 -0.3 45 4.7 WNW 15 15 8 8 1011.5 1011.7 0.0
17/07:30pm 13.7 8.4 -0.7 37 6.0 WNW 17 20 9 11 1011.1 1011.3 0.0
17/07:00pm 14.4 8.6 -1.2 34 6.5 WNW 19 24 10 13 1010.7 1010.9 0.0
17/06:30pm 15.3 9.3 -1.3 32 6.9 WNW 20 28 11 15 1010.3 1010.5 0.0
17/06:00pm 15.7 9.7 -1.8 30 7.2 WNW 20 26 11 14 1009.9 1010.0 0.0
17/05:30pm 17.1 9.9 -2.0 27 8.0 WNW 26 35 14 19 1009.5 1009.6 0.0
17/05:00pm 18.4 10.8 -2.0 25 8.6 WNW 28 35 15 19 1009.2 1009.3 0.0
17/04:30pm 19.1 10.7 -1.4 25 8.8 WNW 33 48 18 26 1008.9 1009.0 0.0
17/04:09pm 19.4 11.3 -0.6 26 8.8 WNW 32 54 17 29 1008.7 1008.8 0.0
17/04:00pm 19.4 10.7 -0.6 26 8.8 WNW 35 46 19 25 1008.8 1008.9 0.0
17/03:30pm 19.6 11.4 0.6 28 8.6 WNW 33 46 18 25 1008.9 1009.0 0.0
17/03:00pm 20.0 11.6 1.4 29 8.6 WNW 35 56 19 30 1009.2 1009.3 0.0
17/02:56pm 19.6 10.6 0.1 27 8.7 WNW 37 56 20 30 1009.0 1009.1 0.0
17/02:30pm 19.5 10.3 1.0 29 8.4 WNW 39 48 21 26 1009.5 1009.6 0.0
17/02:00pm 20.0 12.0 0.5 27 8.8 WNW 32 43 17 23 1009.7 1009.8 0.0
17/01:30pm 19.3 11.1 0.4 28 8.4 WNW 33 44 18 24 1009.9 1010.0 0.0
17/01:00pm 19.4 11.4 0.4 28 8.5 WNW 32 46 17 25 1010.2 1010.4 0.0
17/12:46pm 19.2 11.2 0.3 28 8.4 WNW 32 52 17 28 1010.3 1010.5 0.0
17/12:30pm 18.6 11.5 3.6 37 7.1 WNW 30 43 16 23 1010.7 1010.9 0.0
17/12:15pm 18.6 11.3 2.4 34 7.5 W 30 50 16 27 1010.7 1010.9 0.0
17/12:00pm 18.3 11.2 3.4 37 7.0 W 30 39 16 21 1011.3 1011.5 0.0
17/11:30am 17.5 10.4 3.8 40 6.5 W 30 41 16 22 1011.7 1011.9 0.0
17/11:00am 17.3 11.4 5.6 46 5.7 W 26 35 14 19 1012.0 1012.2 0.0
17/10:30am 16.9 11.3 5.5 47 5.5 W 24 32 13 17 1012.3 1012.5 0.0
17/10:00am 16.3 11.1 5.3 48 5.3 WNW 22 30 12 16 1012.3 1012.5 0.0
17/09:30am 14.6 9.7 4.9 52 4.6 NW 20 26 11 14 1012.3 1012.5 0.0
17/09:00am 13.5 8.1 4.4 54 4.2 NW 22 28 12 15 1012.3 1012.5 0.0
17/08:30am 12.0 7.0 4.5 60 3.4 NW 20 26 11 14 1012.2 1012.4 0.0
17/08:00am 10.4 7.9 4.5 67 2.7 NNW 7 11 4 6 1012.0 1012.2 0.0
17/07:30am 7.4 4.3 3.8 78 1.6 NNW 9 13 5 7 1011.7 1011.9 0.0
17/07:00am 6.1 3.0 3.6 84 1.1 NNW 9 15 5 8 1011.3 1011.5 0.0
17/06:30am 5.0 1.8 3.0 87 0.8 NNW 9 13 5 7 1011.1 1011.3 0.0

Other Formats:

Comma delimited format used in spreadsheet applications
http://www.bom.gov.au/fwo/IDN60801/IDN60801.95708.axf

JavaScript Object Notation format (JSON) in row-major order
http://www.bom.gov.au/fwo/IDN60801/IDN60801.95708.json